sensor_id;sensor_type;location;lat;lon;timestamp;P1;durP1;ratioP1;P2;durP2;ratioP2
73107;SDS011;61559;50.476;15.588;2023-02-15T00:02:18;23.30;;;9.90;;
73107;SDS011;61559;50.476;15.588;2023-02-15T00:04:50;22.70;;;10.20;;
73107;SDS011;61559;50.476;15.588;2023-02-15T00:07:21;24.00;;;10.30;;
73107;SDS011;61559;50.476;15.588;2023-02-15T00:09:53;24.20;;;11.90;;
73107;SDS011;61559;50.476;15.588;2023-02-15T00:12:24;21.10;;;10.40;;
73107;SDS011;61559;50.476;15.588;2023-02-15T00:14:55;25.00;;;11.40;;
73107;SDS011;61559;50.476;15.588;2023-02-15T00:17:28;24.40;;;10.70;;
73107;SDS011;61559;50.476;15.588;2023-02-15T00:19:59;23.90;;;10.50;;
73107;SDS011;61559;50.476;15.588;2023-02-15T00:22:30;22.50;;;9.70;;
73107;SDS011;61559;50.476;15.588;2023-02-15T00:25:01;22.00;;;9.30;;
73107;SDS011;61559;50.476;15.588;2023-02-15T00:27:33;22.40;;;10.40;;
73107;SDS011;61559;50.476;15.588;2023-02-15T00:30:04;21.60;;;9.20;;
73107;SDS011;61559;50.476;15.588;2023-02-15T00:32:37;20.40;;;9.20;;
73107;SDS011;61559;50.476;15.588;2023-02-15T00:35:08;20.60;;;9.50;;
73107;SDS011;61559;50.476;15.588;2023-02-15T00:40:09;33.10;;;13.60;;
73107;SDS011;61559;50.476;15.588;2023-02-15T00:42:40;26.80;;;10.70;;
73107;SDS011;61559;50.476;15.588;2023-02-15T00:47:44;26.00;;;10.60;;
73107;SDS011;61559;50.476;15.588;2023-02-15T00:50:15;24.70;;;10.50;;
73107;SDS011;61559;50.476;15.588;2023-02-15T00:52:49;27.80;;;12.00;;
73107;SDS011;61559;50.476;15.588;2023-02-15T00:57:49;23.90;;;10.40;;
73107;SDS011;61559;50.476;15.588;2023-02-15T01:00:21;24.70;;;10.30;;
73107;SDS011;61559;50.476;15.588;2023-02-15T01:02:52;22.70;;;9.90;;
73107;SDS011;61559;50.476;15.588;2023-02-15T01:05:23;20.80;;;9.30;;
73107;SDS011;61559;50.476;15.588;2023-02-15T01:07:54;18.30;;;8.50;;
73107;SDS011;61559;50.476;15.588;2023-02-15T01:10:25;21.70;;;9.00;;
73107;SDS011;61559;50.476;15.588;2023-02-15T01:12:56;21.30;;;9.90;;
73107;SDS011;61559;50.476;15.588;2023-02-15T01:15:27;22.10;;;10.10;;
73107;SDS011;61559;50.476;15.588;2023-02-15T01:17:59;30.20;;;12.20;;
73107;SDS011;61559;50.476;15.588;2023-02-15T01:20:33;24.20;;;10.20;;
73107;SDS011;61559;50.476;15.588;2023-02-15T01:23:07;19.00;;;9.40;;
73107;SDS011;61559;50.476;15.588;2023-02-15T01:28:07;25.80;;;11.60;;
73107;SDS011;61559;50.476;15.588;2023-02-15T01:33:08;17.50;;;7.90;;
73107;SDS011;61559;50.476;15.588;2023-02-15T01:38:15;19.70;;;9.50;;
73107;SDS011;61559;50.476;15.588;2023-02-15T01:40:46;21.60;;;9.40;;
73107;SDS011;61559;50.476;15.588;2023-02-15T01:43:19;22.50;;;10.40;;
73107;SDS011;61559;50.476;15.588;2023-02-15T01:45:50;20.10;;;9.70;;
73107;SDS011;61559;50.476;15.588;2023-02-15T01:50:55;21.50;;;9.70;;
73107;SDS011;61559;50.476;15.588;2023-02-15T01:53:30;21.10;;;9.00;;
73107;SDS011;61559;50.476;15.588;2023-02-15T01:56:07;20.60;;;10.70;;
73107;SDS011;61559;50.476;15.588;2023-02-15T01:58:42;27.20;;;10.40;;
73107;SDS011;61559;50.476;15.588;2023-02-15T02:01:17;32.30;;;13.00;;
73107;SDS011;61559;50.476;15.588;2023-02-15T02:03:57;26.60;;;11.20;;
73107;SDS011;61559;50.476;15.588;2023-02-15T02:06:35;27.40;;;11.60;;
73107;SDS011;61559;50.476;15.588;2023-02-15T02:09:08;23.00;;;11.40;;
73107;SDS011;61559;50.476;15.588;2023-02-15T02:11:40;26.60;;;12.10;;
73107;SDS011;61559;50.476;15.588;2023-02-15T02:14:13;24.30;;;11.10;;
73107;SDS011;61559;50.476;15.588;2023-02-15T02:16:47;25.40;;;10.50;;
73107;SDS011;61559;50.476;15.588;2023-02-15T02:22:53;27.00;;;12.60;;
73107;SDS011;61559;50.476;15.588;2023-02-15T02:25:49;28.60;;;11.90;;
73107;SDS011;61559;50.476;15.588;2023-02-15T02:31:50;24.30;;;10.40;;
73107;SDS011;61559;50.476;15.588;2023-02-15T02:34:36;25.90;;;10.00;;
73107;SDS011;61559;50.476;15.588;2023-02-15T02:37:16;25.20;;;10.40;;
73107;SDS011;61559;50.476;15.588;2023-02-15T02:42:26;22.20;;;10.50;;
73107;SDS011;61559;50.476;15.588;2023-02-15T02:45:05;22.60;;;9.90;;
73107;SDS011;61559;50.476;15.588;2023-02-15T02:47:39;22.00;;;9.90;;
73107;SDS011;61559;50.476;15.588;2023-02-15T02:50:15;24.60;;;11.10;;
73107;SDS011;61559;50.476;15.588;2023-02-15T02:52:48;25.80;;;10.90;;
73107;SDS011;61559;50.476;15.588;2023-02-15T02:55:20;25.80;;;11.60;;
73107;SDS011;61559;50.476;15.588;2023-02-15T03:00:30;24.90;;;10.70;;
73107;SDS011;61559;50.476;15.588;2023-02-15T03:03:08;24.30;;;10.40;;
73107;SDS011;61559;50.476;15.588;2023-02-15T03:05:43;23.50;;;10.40;;
73107;SDS011;61559;50.476;15.588;2023-02-15T03:08:17;22.50;;;10.10;;
73107;SDS011;61559;50.476;15.588;2023-02-15T03:10:52;25.50;;;10.80;;
73107;SDS011;61559;50.476;15.588;2023-02-15T03:13:26;21.60;;;10.60;;
73107;SDS011;61559;50.476;15.588;2023-02-15T03:15:57;23.70;;;9.90;;
73107;SDS011;61559;50.476;15.588;2023-02-15T03:18:53;22.50;;;10.00;;
73107;SDS011;61559;50.476;15.588;2023-02-15T03:21:30;22.80;;;10.00;;
73107;SDS011;61559;50.476;15.588;2023-02-15T03:24:06;27.80;;;10.60;;
73107;SDS011;61559;50.476;15.588;2023-02-15T03:26:43;21.60;;;10.50;;
73107;SDS011;61559;50.476;15.588;2023-02-15T03:29:19;21.30;;;10.60;;
73107;SDS011;61559;50.476;15.588;2023-02-15T03:31:53;28.60;;;11.90;;
73107;SDS011;61559;50.476;15.588;2023-02-15T03:34:29;21.50;;;9.60;;
73107;SDS011;61559;50.476;15.588;2023-02-15T03:37:03;23.70;;;10.30;;
73107;SDS011;61559;50.476;15.588;2023-02-15T03:39:39;23.80;;;10.00;;
73107;SDS011;61559;50.476;15.588;2023-02-15T03:42:18;28.40;;;10.90;;
73107;SDS011;61559;50.476;15.588;2023-02-15T03:44:54;24.60;;;10.30;;
73107;SDS011;61559;50.476;15.588;2023-02-15T03:47:32;25.20;;;10.50;;
73107;SDS011;61559;50.476;15.588;2023-02-15T03:50:07;22.10;;;9.80;;
73107;SDS011;61559;50.476;15.588;2023-02-15T03:52:55;22.50;;;9.40;;
73107;SDS011;61559;50.476;15.588;2023-02-15T03:55:31;24.10;;;10.20;;
73107;SDS011;61559;50.476;15.588;2023-02-15T03:58:02;21.80;;;9.30;;
73107;SDS011;61559;50.476;15.588;2023-02-15T04:00:53;21.80;;;9.70;;
73107;SDS011;61559;50.476;15.588;2023-02-15T04:03:45;29.90;;;12.50;;
73107;SDS011;61559;50.476;15.588;2023-02-15T04:06:21;35.50;;;14.20;;
73107;SDS011;61559;50.476;15.588;2023-02-15T04:08:52;28.30;;;12.30;;
73107;SDS011;61559;50.476;15.588;2023-02-15T04:11:40;30.30;;;12.80;;
73107;SDS011;61559;50.476;15.588;2023-02-15T04:14:11;27.50;;;11.90;;
73107;SDS011;61559;50.476;15.588;2023-02-15T04:17:00;33.40;;;12.70;;
73107;SDS011;61559;50.476;15.588;2023-02-15T04:19:34;27.70;;;11.50;;
73107;SDS011;61559;50.476;15.588;2023-02-15T04:22:23;26.00;;;11.30;;
73107;SDS011;61559;50.476;15.588;2023-02-15T04:25:11;28.30;;;12.70;;
73107;SDS011;61559;50.476;15.588;2023-02-15T04:30:14;26.60;;;11.60;;
73107;SDS011;61559;50.476;15.588;2023-02-15T04:32:47;29.70;;;12.40;;
73107;SDS011;61559;50.476;15.588;2023-02-15T04:37:47;37.80;;;14.80;;
73107;SDS011;61559;50.476;15.588;2023-02-15T04:42:48;41.70;;;16.80;;
73107;SDS011;61559;50.476;15.588;2023-02-15T04:45:19;38.30;;;16.60;;
73107;SDS011;61559;50.476;15.588;2023-02-15T04:47:50;44.70;;;16.90;;
73107;SDS011;61559;50.476;15.588;2023-02-15T04:50:22;44.80;;;17.80;;
73107;SDS011;61559;50.476;15.588;2023-02-15T04:52:53;33.80;;;14.80;;
73107;SDS011;61559;50.476;15.588;2023-02-15T04:55:24;43.30;;;17.50;;
73107;SDS011;61559;50.476;15.588;2023-02-15T04:57:55;32.50;;;14.30;;
73107;SDS011;61559;50.476;15.588;2023-02-15T05:00:26;30.50;;;12.50;;
73107;SDS011;61559;50.476;15.588;2023-02-15T05:02:57;33.20;;;12.80;;
73107;SDS011;61559;50.476;15.588;2023-02-15T05:07:58;30.60;;;12.70;;
73107;SDS011;61559;50.476;15.588;2023-02-15T05:10:29;38.80;;;15.20;;
73107;SDS011;61559;50.476;15.588;2023-02-15T05:13:00;33.10;;;14.20;;
73107;SDS011;61559;50.476;15.588;2023-02-15T05:15:31;35.80;;;14.50;;
73107;SDS011;61559;50.476;15.588;2023-02-15T05:18:02;32.20;;;13.50;;
73107;SDS011;61559;50.476;15.588;2023-02-15T05:20:34;31.70;;;13.40;;
73107;SDS011;61559;50.476;15.588;2023-02-15T05:23:05;35.00;;;15.70;;
73107;SDS011;61559;50.476;15.588;2023-02-15T05:25:36;27.70;;;11.80;;
73107;SDS011;61559;50.476;15.588;2023-02-15T05:28:21;27.10;;;11.40;;
73107;SDS011;61559;50.476;15.588;2023-02-15T05:30:59;29.00;;;12.20;;
73107;SDS011;61559;50.476;15.588;2023-02-15T05:33:34;31.30;;;16.50;;
73107;SDS011;61559;50.476;15.588;2023-02-15T05:36:05;26.90;;;13.40;;
73107;SDS011;61559;50.476;15.588;2023-02-15T05:38:37;27.80;;;12.20;;
73107;SDS011;61559;50.476;15.588;2023-02-15T05:41:09;27.00;;;12.40;;
73107;SDS011;61559;50.476;15.588;2023-02-15T05:43:40;25.40;;;11.10;;
73107;SDS011;61559;50.476;15.588;2023-02-15T05:46:11;28.70;;;11.70;;
73107;SDS011;61559;50.476;15.588;2023-02-15T05:48:42;26.90;;;11.70;;
73107;SDS011;61559;50.476;15.588;2023-02-15T05:51:13;23.20;;;10.40;;
73107;SDS011;61559;50.476;15.588;2023-02-15T05:53:45;25.00;;;11.10;;
73107;SDS011;61559;50.476;15.588;2023-02-15T05:56:15;31.30;;;12.20;;
73107;SDS011;61559;50.476;15.588;2023-02-15T05:58:46;28.20;;;11.80;;
73107;SDS011;61559;50.476;15.588;2023-02-15T06:01:18;26.90;;;12.10;;
73107;SDS011;61559;50.476;15.588;2023-02-15T06:03:50;24.50;;;11.70;;
73107;SDS011;61559;50.476;15.588;2023-02-15T06:06:22;26.60;;;10.90;;
73107;SDS011;61559;50.476;15.588;2023-02-15T06:08:53;24.00;;;10.60;;
73107;SDS011;61559;50.476;15.588;2023-02-15T06:11:24;24.10;;;10.40;;
73107;SDS011;61559;50.476;15.588;2023-02-15T06:13:55;25.80;;;11.70;;
73107;SDS011;61559;50.476;15.588;2023-02-15T06:16:26;31.10;;;13.60;;
73107;SDS011;61559;50.476;15.588;2023-02-15T06:19:00;28.20;;;12.60;;
73107;SDS011;61559;50.476;15.588;2023-02-15T06:21:31;27.70;;;13.00;;
73107;SDS011;61559;50.476;15.588;2023-02-15T06:24:02;28.00;;;12.30;;
73107;SDS011;61559;50.476;15.588;2023-02-15T06:26:33;33.70;;;13.80;;
73107;SDS011;61559;50.476;15.588;2023-02-15T06:29:04;29.60;;;13.30;;
73107;SDS011;61559;50.476;15.588;2023-02-15T06:34:05;27.80;;;12.90;;
73107;SDS011;61559;50.476;15.588;2023-02-15T06:36:36;37.10;;;15.80;;
73107;SDS011;61559;50.476;15.588;2023-02-15T06:39:07;29.70;;;13.50;;
73107;SDS011;61559;50.476;15.588;2023-02-15T06:41:38;38.20;;;15.30;;
73107;SDS011;61559;50.476;15.588;2023-02-15T06:44:09;32.60;;;13.50;;
73107;SDS011;61559;50.476;15.588;2023-02-15T06:46:40;38.80;;;15.80;;
73107;SDS011;61559;50.476;15.588;2023-02-15T06:49:11;32.60;;;13.90;;
73107;SDS011;61559;50.476;15.588;2023-02-15T06:51:42;31.90;;;13.60;;
73107;SDS011;61559;50.476;15.588;2023-02-15T06:54:13;24.50;;;11.40;;
73107;SDS011;61559;50.476;15.588;2023-02-15T06:56:44;26.30;;;11.90;;
73107;SDS011;61559;50.476;15.588;2023-02-15T06:59:16;61.00;;;21.80;;
73107;SDS011;61559;50.476;15.588;2023-02-15T07:01:47;32.90;;;15.90;;
73107;SDS011;61559;50.476;15.588;2023-02-15T07:04:19;38.20;;;16.40;;
73107;SDS011;61559;50.476;15.588;2023-02-15T07:06:50;34.20;;;14.20;;
73107;SDS011;61559;50.476;15.588;2023-02-15T07:09:21;31.50;;;13.80;;
73107;SDS011;61559;50.476;15.588;2023-02-15T07:11:52;30.50;;;13.80;;
73107;SDS011;61559;50.476;15.588;2023-02-15T07:14:41;34.90;;;14.80;;
73107;SDS011;61559;50.476;15.588;2023-02-15T07:17:12;47.90;;;19.60;;
73107;SDS011;61559;50.476;15.588;2023-02-15T07:20:02;40.90;;;17.70;;
73107;SDS011;61559;50.476;15.588;2023-02-15T07:22:36;51.20;;;20.00;;
73107;SDS011;61559;50.476;15.588;2023-02-15T07:25:08;49.20;;;19.80;;
73107;SDS011;61559;50.476;15.588;2023-02-15T07:27:41;45.10;;;18.10;;
73107;SDS011;61559;50.476;15.588;2023-02-15T07:30:13;38.40;;;16.60;;
73107;SDS011;61559;50.476;15.588;2023-02-15T07:32:45;31.90;;;12.90;;
73107;SDS011;61559;50.476;15.588;2023-02-15T07:35:35;30.20;;;13.10;;
73107;SDS011;61559;50.476;15.588;2023-02-15T07:40:35;37.90;;;15.60;;
73107;SDS011;61559;50.476;15.588;2023-02-15T07:43:06;46.00;;;17.40;;
73107;SDS011;61559;50.476;15.588;2023-02-15T07:45:38;76.40;;;24.60;;
73107;SDS011;61559;50.476;15.588;2023-02-15T07:48:09;40.90;;;16.10;;
73107;SDS011;61559;50.476;15.588;2023-02-15T07:50:41;46.10;;;17.70;;
73107;SDS011;61559;50.476;15.588;2023-02-15T07:53:12;44.30;;;17.30;;
73107;SDS011;61559;50.476;15.588;2023-02-15T07:55:43;44.90;;;18.20;;
73107;SDS011;61559;50.476;15.588;2023-02-15T07:58:14;46.80;;;19.70;;
73107;SDS011;61559;50.476;15.588;2023-02-15T08:00:45;47.30;;;19.20;;
73107;SDS011;61559;50.476;15.588;2023-02-15T08:03:25;35.50;;;16.80;;
73107;SDS011;61559;50.476;15.588;2023-02-15T08:05:57;59.00;;;21.60;;
73107;SDS011;61559;50.476;15.588;2023-02-15T08:08:29;52.90;;;17.50;;
73107;SDS011;61559;50.476;15.588;2023-02-15T08:11:04;61.20;;;23.60;;
73107;SDS011;61559;50.476;15.588;2023-02-15T08:13:57;62.70;;;24.20;;
73107;SDS011;61559;50.476;15.588;2023-02-15T08:16:31;49.60;;;20.00;;
73107;SDS011;61559;50.476;15.588;2023-02-15T08:19:05;51.90;;;19.90;;
73107;SDS011;61559;50.476;15.588;2023-02-15T08:21:38;37.10;;;15.70;;
73107;SDS011;61559;50.476;15.588;2023-02-15T08:24:11;35.30;;;15.20;;
73107;SDS011;61559;50.476;15.588;2023-02-15T08:26:44;35.50;;;14.20;;
73107;SDS011;61559;50.476;15.588;2023-02-15T08:29:17;33.70;;;15.20;;
73107;SDS011;61559;50.476;15.588;2023-02-15T08:31:52;33.70;;;14.00;;
73107;SDS011;61559;50.476;15.588;2023-02-15T08:34:27;76.00;;;25.80;;
73107;SDS011;61559;50.476;15.588;2023-02-15T08:36:59;51.40;;;19.10;;
73107;SDS011;61559;50.476;15.588;2023-02-15T08:39:30;58.50;;;23.30;;
73107;SDS011;61559;50.476;15.588;2023-02-15T08:42:01;49.70;;;20.20;;
73107;SDS011;61559;50.476;15.588;2023-02-15T08:44:33;42.30;;;17.80;;
73107;SDS011;61559;50.476;15.588;2023-02-15T08:47:04;38.80;;;16.40;;
73107;SDS011;61559;50.476;15.588;2023-02-15T08:49:35;32.50;;;14.60;;
73107;SDS011;61559;50.476;15.588;2023-02-15T08:52:06;36.60;;;16.10;;
73107;SDS011;61559;50.476;15.588;2023-02-15T08:54:37;36.20;;;14.70;;
73107;SDS011;61559;50.476;15.588;2023-02-15T08:57:09;34.00;;;14.30;;
73107;SDS011;61559;50.476;15.588;2023-02-15T08:59:40;37.50;;;16.20;;
73107;SDS011;61559;50.476;15.588;2023-02-15T09:02:11;32.40;;;15.20;;
73107;SDS011;61559;50.476;15.588;2023-02-15T09:04:42;47.00;;;19.10;;
73107;SDS011;61559;50.476;15.588;2023-02-15T09:07:13;34.30;;;14.40;;
73107;SDS011;61559;50.476;15.588;2023-02-15T09:09:44;38.90;;;16.90;;
73107;SDS011;61559;50.476;15.588;2023-02-15T09:12:16;50.40;;;21.30;;
73107;SDS011;61559;50.476;15.588;2023-02-15T09:14:47;39.40;;;17.90;;
73107;SDS011;61559;50.476;15.588;2023-02-15T09:17:19;38.10;;;16.90;;
73107;SDS011;61559;50.476;15.588;2023-02-15T09:19:53;43.60;;;17.60;;
73107;SDS011;61559;50.476;15.588;2023-02-15T09:22:27;44.00;;;18.10;;
73107;SDS011;61559;50.476;15.588;2023-02-15T09:25:02;44.10;;;18.30;;
73107;SDS011;61559;50.476;15.588;2023-02-15T09:27:36;38.40;;;15.10;;
73107;SDS011;61559;50.476;15.588;2023-02-15T09:30:12;35.50;;;15.10;;
73107;SDS011;61559;50.476;15.588;2023-02-15T09:32:44;37.30;;;15.60;;
73107;SDS011;61559;50.476;15.588;2023-02-15T09:35:15;35.80;;;14.80;;
73107;SDS011;61559;50.476;15.588;2023-02-15T09:37:47;31.70;;;13.80;;
73107;SDS011;61559;50.476;15.588;2023-02-15T09:40:18;30.90;;;13.50;;
73107;SDS011;61559;50.476;15.588;2023-02-15T09:43:07;36.30;;;15.10;;
73107;SDS011;61559;50.476;15.588;2023-02-15T09:46:01;39.40;;;16.50;;
73107;SDS011;61559;50.476;15.588;2023-02-15T09:48:42;33.40;;;15.00;;
73107;SDS011;61559;50.476;15.588;2023-02-15T09:54:38;42.60;;;17.70;;
73107;SDS011;61559;50.476;15.588;2023-02-15T09:57:23;54.00;;;20.00;;
73107;SDS011;61559;50.476;15.588;2023-02-15T10:00:02;48.20;;;17.90;;
73107;SDS011;61559;50.476;15.588;2023-02-15T10:02:44;38.70;;;15.90;;
73107;SDS011;61559;50.476;15.588;2023-02-15T10:05:32;47.80;;;17.00;;
73107;SDS011;61559;50.476;15.588;2023-02-15T10:08:28;37.40;;;16.40;;
73107;SDS011;61559;50.476;15.588;2023-02-15T10:11:11;32.50;;;13.90;;
73107;SDS011;61559;50.476;15.588;2023-02-15T10:14:07;37.90;;;16.20;;
73107;SDS011;61559;50.476;15.588;2023-02-15T10:16:51;42.10;;;17.30;;
73107;SDS011;61559;50.476;15.588;2023-02-15T10:19:34;57.40;;;20.00;;
73107;SDS011;61559;50.476;15.588;2023-02-15T10:22:14;52.70;;;20.20;;
73107;SDS011;61559;50.476;15.588;2023-02-15T10:25:03;46.70;;;19.10;;
73107;SDS011;61559;50.476;15.588;2023-02-15T10:27:45;34.80;;;15.50;;
73107;SDS011;61559;50.476;15.588;2023-02-15T10:30:19;42.00;;;17.60;;
73107;SDS011;61559;50.476;15.588;2023-02-15T10:33:00;36.70;;;15.50;;
73107;SDS011;61559;50.476;15.588;2023-02-15T10:35:35;34.20;;;15.20;;
73107;SDS011;61559;50.476;15.588;2023-02-15T10:38:21;34.70;;;15.90;;
73107;SDS011;61559;50.476;15.588;2023-02-15T10:41:05;70.50;;;26.00;;
73107;SDS011;61559;50.476;15.588;2023-02-15T10:43:54;43.00;;;19.10;;
73107;SDS011;61559;50.476;15.588;2023-02-15T10:46:44;31.00;;;14.20;;
73107;SDS011;61559;50.476;15.588;2023-02-15T10:49:28;36.40;;;15.40;;
73107;SDS011;61559;50.476;15.588;2023-02-15T10:52:17;40.50;;;18.80;;
73107;SDS011;61559;50.476;15.588;2023-02-15T10:55:01;35.90;;;16.10;;
73107;SDS011;61559;50.476;15.588;2023-02-15T10:57:41;44.10;;;19.50;;
73107;SDS011;61559;50.476;15.588;2023-02-15T11:00:21;33.40;;;15.40;;
73107;SDS011;61559;50.476;15.588;2023-02-15T11:03:07;38.90;;;16.50;;
73107;SDS011;61559;50.476;15.588;2023-02-15T11:05:51;46.40;;;19.00;;
73107;SDS011;61559;50.476;15.588;2023-02-15T11:08:34;41.00;;;20.70;;
73107;SDS011;61559;50.476;15.588;2023-02-15T11:11:10;30.60;;;14.60;;
73107;SDS011;61559;50.476;15.588;2023-02-15T11:13:47;38.50;;;17.80;;
73107;SDS011;61559;50.476;15.588;2023-02-15T11:16:20;39.90;;;17.00;;
73107;SDS011;61559;50.476;15.588;2023-02-15T11:18:57;33.10;;;15.50;;
73107;SDS011;61559;50.476;15.588;2023-02-15T11:21:32;39.10;;;17.70;;
73107;SDS011;61559;50.476;15.588;2023-02-15T11:24:10;36.00;;;15.70;;
73107;SDS011;61559;50.476;15.588;2023-02-15T11:26:43;40.40;;;17.00;;
73107;SDS011;61559;50.476;15.588;2023-02-15T11:29:18;33.40;;;14.10;;
73107;SDS011;61559;50.476;15.588;2023-02-15T11:31:55;36.70;;;15.90;;
73107;SDS011;61559;50.476;15.588;2023-02-15T11:34:31;41.90;;;18.70;;
73107;SDS011;61559;50.476;15.588;2023-02-15T11:37:06;34.20;;;16.90;;
73107;SDS011;61559;50.476;15.588;2023-02-15T11:39:46;42.60;;;17.10;;
73107;SDS011;61559;50.476;15.588;2023-02-15T11:42:21;35.60;;;15.90;;
73107;SDS011;61559;50.476;15.588;2023-02-15T11:44:56;44.80;;;19.50;;
73107;SDS011;61559;50.476;15.588;2023-02-15T11:47:34;41.10;;;18.10;;
73107;SDS011;61559;50.476;15.588;2023-02-15T11:52:40;35.80;;;15.50;;
73107;SDS011;61559;50.476;15.588;2023-02-15T11:55:14;40.60;;;18.70;;
73107;SDS011;61559;50.476;15.588;2023-02-15T11:57:50;39.30;;;16.70;;
73107;SDS011;61559;50.476;15.588;2023-02-15T12:00:30;49.40;;;21.10;;
73107;SDS011;61559;50.476;15.588;2023-02-15T12:03:14;42.50;;;19.60;;
73107;SDS011;61559;50.476;15.588;2023-02-15T12:05:53;49.80;;;19.70;;
73107;SDS011;61559;50.476;15.588;2023-02-15T12:08:31;64.20;;;24.80;;
73107;SDS011;61559;50.476;15.588;2023-02-15T12:11:07;46.40;;;20.10;;
73107;SDS011;61559;50.476;15.588;2023-02-15T12:13:54;48.60;;;21.70;;
73107;SDS011;61559;50.476;15.588;2023-02-15T12:16:27;49.50;;;20.30;;
73107;SDS011;61559;50.476;15.588;2023-02-15T12:19:04;44.70;;;20.70;;
73107;SDS011;61559;50.476;15.588;2023-02-15T12:21:42;45.40;;;20.20;;
73107;SDS011;61559;50.476;15.588;2023-02-15T12:24:17;42.70;;;20.10;;
73107;SDS011;61559;50.476;15.588;2023-02-15T12:27:01;51.20;;;23.20;;
73107;SDS011;61559;50.476;15.588;2023-02-15T12:29:39;48.10;;;21.50;;
73107;SDS011;61559;50.476;15.588;2023-02-15T12:32:15;41.10;;;16.70;;
73107;SDS011;61559;50.476;15.588;2023-02-15T12:34:49;46.80;;;20.00;;
73107;SDS011;61559;50.476;15.588;2023-02-15T12:37:27;38.80;;;17.10;;
73107;SDS011;61559;50.476;15.588;2023-02-15T12:40:11;36.20;;;15.80;;
73107;SDS011;61559;50.476;15.588;2023-02-15T12:42:50;40.20;;;16.30;;
73107;SDS011;61559;50.476;15.588;2023-02-15T12:45:22;35.80;;;15.90;;
73107;SDS011;61559;50.476;15.588;2023-02-15T12:48:13;40.10;;;16.70;;
73107;SDS011;61559;50.476;15.588;2023-02-15T12:50:46;37.60;;;17.00;;
73107;SDS011;61559;50.476;15.588;2023-02-15T12:53:22;44.00;;;20.10;;
73107;SDS011;61559;50.476;15.588;2023-02-15T12:56:01;44.70;;;17.70;;
73107;SDS011;61559;50.476;15.588;2023-02-15T12:58:34;42.50;;;18.30;;
73107;SDS011;61559;50.476;15.588;2023-02-15T13:01:13;43.80;;;18.00;;
73107;SDS011;61559;50.476;15.588;2023-02-15T13:03:54;44.40;;;18.20;;
73107;SDS011;61559;50.476;15.588;2023-02-15T13:06:28;42.40;;;17.00;;
73107;SDS011;61559;50.476;15.588;2023-02-15T13:09:07;40.00;;;17.90;;
73107;SDS011;61559;50.476;15.588;2023-02-15T13:11:46;39.70;;;17.70;;
73107;SDS011;61559;50.476;15.588;2023-02-15T13:14:19;48.80;;;20.10;;
73107;SDS011;61559;50.476;15.588;2023-02-15T13:16:52;46.70;;;18.50;;
73107;SDS011;61559;50.476;15.588;2023-02-15T13:19:29;47.70;;;20.80;;
73107;SDS011;61559;50.476;15.588;2023-02-15T13:22:05;48.10;;;19.70;;
73107;SDS011;61559;50.476;15.588;2023-02-15T13:24:41;47.10;;;20.80;;
73107;SDS011;61559;50.476;15.588;2023-02-15T13:27:16;50.30;;;20.70;;
73107;SDS011;61559;50.476;15.588;2023-02-15T13:29:51;48.30;;;20.80;;
73107;SDS011;61559;50.476;15.588;2023-02-15T13:32:28;47.30;;;20.90;;
73107;SDS011;61559;50.476;15.588;2023-02-15T13:35:05;50.90;;;22.30;;
73107;SDS011;61559;50.476;15.588;2023-02-15T13:37:48;53.00;;;21.50;;
73107;SDS011;61559;50.476;15.588;2023-02-15T13:40:32;52.50;;;20.90;;
73107;SDS011;61559;50.476;15.588;2023-02-15T13:43:10;47.00;;;19.90;;
73107;SDS011;61559;50.476;15.588;2023-02-15T13:45:55;60.00;;;24.00;;
73107;SDS011;61559;50.476;15.588;2023-02-15T13:48:36;53.70;;;20.10;;
73107;SDS011;61559;50.476;15.588;2023-02-15T13:51:20;52.30;;;20.80;;
73107;SDS011;61559;50.476;15.588;2023-02-15T13:54:12;57.50;;;22.60;;
73107;SDS011;61559;50.476;15.588;2023-02-15T13:57:01;53.60;;;21.70;;
73107;SDS011;61559;50.476;15.588;2023-02-15T13:59:48;50.60;;;21.40;;
73107;SDS011;61559;50.476;15.588;2023-02-15T14:02:38;55.60;;;22.90;;
73107;SDS011;61559;50.476;15.588;2023-02-15T14:05:34;57.30;;;23.10;;
73107;SDS011;61559;50.476;15.588;2023-02-15T14:08:30;55.40;;;22.10;;
73107;SDS011;61559;50.476;15.588;2023-02-15T14:11:11;49.90;;;22.00;;
73107;SDS011;61559;50.476;15.588;2023-02-15T14:14:02;52.60;;;22.00;;
73107;SDS011;61559;50.476;15.588;2023-02-15T14:16:57;52.70;;;21.10;;
73107;SDS011;61559;50.476;15.588;2023-02-15T14:19:37;48.90;;;20.10;;
73107;SDS011;61559;50.476;15.588;2023-02-15T14:22:16;54.30;;;20.80;;
73107;SDS011;61559;50.476;15.588;2023-02-15T14:24:58;45.40;;;18.20;;
73107;SDS011;61559;50.476;15.588;2023-02-15T14:27:45;39.60;;;16.50;;
73107;SDS011;61559;50.476;15.588;2023-02-15T14:30:26;51.20;;;21.00;;
73107;SDS011;61559;50.476;15.588;2023-02-15T14:33:02;54.40;;;21.50;;
73107;SDS011;61559;50.476;15.588;2023-02-15T14:35:36;52.20;;;21.80;;
73107;SDS011;61559;50.476;15.588;2023-02-15T14:38:12;56.60;;;22.90;;
73107;SDS011;61559;50.476;15.588;2023-02-15T14:40:51;61.20;;;23.90;;
73107;SDS011;61559;50.476;15.588;2023-02-15T14:43:33;53.30;;;20.90;;
73107;SDS011;61559;50.476;15.588;2023-02-15T14:46:18;52.00;;;21.40;;
73107;SDS011;61559;50.476;15.588;2023-02-15T14:48:57;47.90;;;20.30;;
73107;SDS011;61559;50.476;15.588;2023-02-15T14:57:31;374.10;;;132.80;;
73107;SDS011;61559;50.476;15.588;2023-02-15T15:00:27;243.90;;;87.40;;
73107;SDS011;61559;50.476;15.588;2023-02-15T15:03:04;55.80;;;23.50;;
73107;SDS011;61559;50.476;15.588;2023-02-15T15:05:49;52.10;;;21.30;;
73107;SDS011;61559;50.476;15.588;2023-02-15T15:08:25;55.30;;;22.30;;
73107;SDS011;61559;50.476;15.588;2023-02-15T15:14:10;47.00;;;19.80;;
73107;SDS011;61559;50.476;15.588;2023-02-15T15:16:55;46.50;;;18.50;;
73107;SDS011;61559;50.476;15.588;2023-02-15T15:22:36;46.20;;;19.50;;
73107;SDS011;61559;50.476;15.588;2023-02-15T15:25:12;56.80;;;24.30;;
73107;SDS011;61559;50.476;15.588;2023-02-15T15:31:21;40.20;;;16.10;;
73107;SDS011;61559;50.476;15.588;2023-02-15T15:37:39;40.30;;;15.60;;
73107;SDS011;61559;50.476;15.588;2023-02-15T15:43:39;47.20;;;19.80;;
73107;SDS011;61559;50.476;15.588;2023-02-15T15:49:37;41.90;;;16.60;;
73107;SDS011;61559;50.476;15.588;2023-02-15T15:52:11;44.80;;;18.30;;
73107;SDS011;61559;50.476;15.588;2023-02-15T15:54:44;56.90;;;24.20;;
73107;SDS011;61559;50.476;15.588;2023-02-15T15:57:21;52.10;;;21.30;;
73107;SDS011;61559;50.476;15.588;2023-02-15T15:59:57;54.10;;;20.70;;
73107;SDS011;61559;50.476;15.588;2023-02-15T16:02:29;50.70;;;20.80;;
73107;SDS011;61559;50.476;15.588;2023-02-15T16:05:07;46.90;;;19.20;;
73107;SDS011;61559;50.476;15.588;2023-02-15T16:07:39;49.60;;;19.20;;
73107;SDS011;61559;50.476;15.588;2023-02-15T16:10:19;100.40;;;40.80;;
73107;SDS011;61559;50.476;15.588;2023-02-15T16:12:51;203.50;;;80.50;;
73107;SDS011;61559;50.476;15.588;2023-02-15T16:15:24;91.30;;;39.80;;
73107;SDS011;61559;50.476;15.588;2023-02-15T16:17:59;117.50;;;53.30;;